Rhapsody Of The Seas — C6UA2 — position and weather

sailwx.info

Track history (hours):
 
Tides and Currents Weather Stations Pressure Air Temp Water Temp Dewpoint Dewpoint Depression Visibility Wind Speed Wind Dir Waves Ship Positions

Rhapsody Of The Seas

Last reported at 2019-Feb-20 16:02 UTC. Time now 2019-Feb-21 11:32 UTC.
Position N 39°07' E 009°07'.

Type: Passenger vessel. MMSI: 311805000.

Date/timePositionNaut miles runAvg speedWind from/ knotsBaromVisibWave heightAir tempDewpointWater temp
2019-Feb-20 16:02N 39°07' E 009°07'5253746.3
2019-Feb-20 09:00N 18°06' W 087°42'14714.8 130 / 351014.810.8 25.322.226.0
2019-Feb-19 23:05N 20°28' W 087°02'114.1
2019-Feb-19 23:00N 20°29' W 087°01'3 4.8
2019-Feb-19 22:28N 20°29' W 086°59'0 0.0
2019-Feb-19 21:58N 20°29' W 086°59'0 0.0
2019-Feb-19 21:28N 20°29' W 086°59'0 0.0
2019-Feb-19 20:58N 20°29' W 086°59'0 0.0
2019-Feb-19 20:28N 20°29' W 086°59'0 0.0
2019-Feb-19 19:58N 20°29' W 086°59'0 0.0
2019-Feb-19 19:28N 20°29' W 086°59'0 0.0
2019-Feb-19 18:58N 20°29' W 086°59'0 0.0
2019-Feb-19 18:28N 20°29' W 086°59'0 0.0
2019-Feb-19 17:58N 20°29' W 086°59'0 0.0
2019-Feb-19 17:28N 20°29' W 086°59'0 0.0
2019-Feb-19 16:58N 20°29' W 086°59'0 0.0
2019-Feb-19 16:28N 20°29' W 086°59'0 0.0
2019-Feb-19 15:58N 20°29' W 086°59'0 0.0
2019-Feb-19 15:28N 20°29' W 086°59'0 0.0
2019-Feb-19 14:58N 20°29' W 086°59'0 0.0
2019-Feb-19 14:28N 20°29' W 086°59'0 0.0
2019-Feb-19 13:58N 20°29' W 086°59'0 0.0
2019-Feb-19 13:28N 20°29' W 086°59'0 0.0
2019-Feb-19 12:58N 20°29' W 086°59'0 0.0
2019-Feb-19 12:28N 20°29' W 086°59'0 0.1
2019-Feb-19 11:58N 20°29' W 086°59'1 2.9
2019-Feb-19 11:30N 20°30' W 086°58'5 9.2
2019-Feb-19 11:00N 20°35' W 086°57'4 8.5
2019-Feb-19 10:30N 20°38' W 086°53'5119438.9
2019-Feb-18 22:50N 39°02' E 009°09'0 0.0
2019-Feb-18 16:02N 39°02' E 009°09'0 0.0
2019-Feb-18 09:55N 39°02' E 009°09'48275199.3
2019-Feb-18 09:00N 23°30' W 083°12'4827843.6 160 / 281017.810.8 24.822.626.0
2019-Feb-18 03:16N 39°03' E 009°09'476017066.7
2019-Feb-18 03:00N 24°06' W 082°18'4760786.2 140 / 191018.910.8 25.019.1
2019-Feb-17 20:56N 39°03' E 009°09'0 0.0
2019-Feb-17 14:33N 39°03' E 009°08'4778860.0
2019-Feb-17 09:00N 24°42' W 083°06'47782627.2 130 / 181014.810.8 22.520.825.0
2019-Feb-17 07:10N 39°03' E 009°08'0 0.0
2019-Feb-17 00:53N 39°04' E 009°08'46392004.2
2019-Feb-16 22:34N 27°47' W 082°31'114.5
2019-Feb-16 22:30N 27°48' W 082°30'612.4
2019-Feb-16 22:00N 27°53' W 082°26'3 6.2
2019-Feb-16 21:30N 27°56' W 082°27'1 1.7
2019-Feb-16 20:59N 27°57' W 082°27'0 0.0
2019-Feb-16 20:29N 27°57' W 082°27'0 0.0
2019-Feb-16 19:59N 27°57' W 082°27'0 0.0
2019-Feb-16 19:29N 27°57' W 082°27'0 0.0
2019-Feb-16 18:59N 27°57' W 082°27'0 0.0
2019-Feb-16 18:29N 27°57' W 082°27'0 0.0
2019-Feb-16 17:59N 27°57' W 082°27'0 0.0
2019-Feb-16 17:29N 27°57' W 082°27'0 0.0
2019-Feb-16 16:59N 27°57' W 082°27'0 0.0
2019-Feb-16 16:29N 27°57' W 082°27'0 0.0
2019-Feb-16 15:59N 27°57' W 082°27'0 0.0
2019-Feb-16 15:29N 27°57' W 082°27'0 0.0
2019-Feb-16 14:59N 27°57' W 082°27'0 0.0
2019-Feb-16 14:29N 27°57' W 082°27'0 0.0
2019-Feb-16 13:59N 27°57' W 082°27'0 0.0
2019-Feb-16 13:29N 27°57' W 082°27'0 0.0
2019-Feb-16 12:59N 27°57' W 082°27'0 0.0
2019-Feb-16 12:29N 27°57' W 082°27'0 0.0
2019-Feb-16 11:56N 27°57' W 082°27'0 0.9
2019-Feb-16 11:30N 27°57' W 082°27'1 2.6
2019-Feb-16 11:00N 27°55' W 082°27'4 7.4
2019-Feb-16 10:30N 27°51' W 082°27'4633818.7
2019-Feb-16 04:50N 39°04' E 009°08'0 0.0
2019-Feb-15 22:45N 39°04' E 009°08'0 0.0
2019-Feb-15 15:48N 39°05' E 009°08'4993733.7
2019-Feb-15 09:00N 22°30' W 085°48'499313658.4 020 / 151018.910.8 24.022.926.0
2019-Feb-15 08:38N 39°05' E 009°08'0 0.0
2019-Feb-15 01:52N 39°05' E 009°07'51155614.5
2019-Feb-15 00:57N 20°41' W 086°53'716.0
2019-Feb-15 00:30N 20°35' W 086°57'611.4
2019-Feb-15 00:00N 20°29' W 086°59'0 0.1
2019-Feb-14 23:30N 20°29' W 086°59'0 0.1
2019-Feb-14 23:00N 20°29' W 086°59'0 0.0
2019-Feb-14 22:30N 20°29' W 086°59'0 0.0
2019-Feb-14 22:00N 20°29' W 086°59'0 0.0
2019-Feb-14 21:30N 20°29' W 086°59'0 0.0
2019-Feb-14 21:00N 20°29' W 086°59'0 0.0
2019-Feb-14 20:27N 20°29' W 086°59'0 0.0
2019-Feb-14 20:00N 20°29' W 086°59'0 0.0
2019-Feb-14 19:30N 20°29' W 086°59'0 0.0
2019-Feb-14 19:00N 20°29' W 086°59'0 0.0
2019-Feb-14 18:30N 20°29' W 086°59'0 0.0
2019-Feb-14 17:57N 20°29' W 086°59'0 0.0
2019-Feb-14 17:30N 20°29' W 086°59'0 0.0
2019-Feb-14 17:00N 20°29' W 086°59'0 0.1
2019-Feb-14 16:30N 20°29' W 086°59'0 0.0
2019-Feb-14 16:00N 20°29' W 086°59'0 0.0
2019-Feb-14 15:27N 20°29' W 086°59'0 0.0
2019-Feb-14 15:00N 20°29' W 086°59'0 0.0
2019-Feb-14 14:30N 20°29' W 086°59'0 0.1
2019-Feb-14 14:00N 20°29' W 086°59'1 1.1
2019-Feb-14 13:30N 20°29' W 086°59'4 8.0
2019-Feb-14 13:01N 20°27' W 087°02'5131690.2
2019-Feb-14 05:34N 39°06' E 009°07'0 0.0
2019-Feb-13 23:16N 39°06' E 009°07'0 0.0
2019-Feb-13 16:22N 39°06' E 009°07'0 0.0
2019-Feb-13 09:41N 39°06' E 009°07'5294931.1
2019-Feb-13 04:00N 16°54' W 087°36'52944518.1 130 / 101016.910.8 25.017.5
2019-Feb-13 02:49N 39°07' E 009°07'0 0.0
2019-Feb-12 19:30N 39°07' E 009°07'0 0.0
2019-Feb-12 12:34N 39°07' E 009°07'52902048.3
2019-Feb-12 10:00N 17°24' W 087°54'166 6.6 090 / 181015.810.8 25.723.326.0
2019-Feb-11 09:00N 20°00' W 086°54'   090 / 281018.910.8 25.624.126.0
Track history (hours):
 
Tides and Currents Weather Stations Pressure Air Temp Water Temp Dewpoint Dewpoint Depression Visibility Wind Speed Wind Dir Waves Ship Positions

Rhapsody Of The Seas

Last reported at 2019-Feb-20 16:02 UTC. Time now 2019-Feb-21 11:32 UTC.
Position N 39°07' E 009°07'.

Type: Passenger vessel. MMSI: 311805000.

Date/timePositionNaut miles runAvg speedWind from/ knotsBaromVisibWave heightAir tempDewpointWater temp
2019-Feb-20 16:02N 39°07' E 009°07'5253746.3
2019-Feb-20 09:00N 18°06' W 087°42'14714.8 130 / 351014.810.8 25.322.226.0
2019-Feb-19 23:05N 20°28' W 087°02'114.1
2019-Feb-19 23:00N 20°29' W 087°01'3 4.8
2019-Feb-19 22:28N 20°29' W 086°59'0 0.0
2019-Feb-19 21:58N 20°29' W 086°59'0 0.0
2019-Feb-19 21:28N 20°29' W 086°59'0 0.0
2019-Feb-19 20:58N 20°29' W 086°59'0 0.0
2019-Feb-19 20:28N 20°29' W 086°59'0 0.0
2019-Feb-19 19:58N 20°29' W 086°59'0 0.0
2019-Feb-19 19:28N 20°29' W 086°59'0 0.0
2019-Feb-19 18:58N 20°29' W 086°59'0 0.0
2019-Feb-19 18:28N 20°29' W 086°59'0 0.0
2019-Feb-19 17:58N 20°29' W 086°59'0 0.0
2019-Feb-19 17:28N 20°29' W 086°59'0 0.0
2019-Feb-19 16:58N 20°29' W 086°59'0 0.0
2019-Feb-19 16:28N 20°29' W 086°59'0 0.0
2019-Feb-19 15:58N 20°29' W 086°59'0 0.0
2019-Feb-19 15:28N 20°29' W 086°59'0 0.0
2019-Feb-19 14:58N 20°29' W 086°59'0 0.0
2019-Feb-19 14:28N 20°29' W 086°59'0 0.0
2019-Feb-19 13:58N 20°29' W 086°59'0 0.0
2019-Feb-19 13:28N 20°29' W 086°59'0 0.0
2019-Feb-19 12:58N 20°29' W 086°59'0 0.0
2019-Feb-19 12:28N 20°29' W 086°59'0 0.1
2019-Feb-19 11:58N 20°29' W 086°59'1 2.9
2019-Feb-19 11:30N 20°30' W 086°58'5 9.2
2019-Feb-19 11:00N 20°35' W 086°57'4 8.5
2019-Feb-19 10:30N 20°38' W 086°53'5119438.9
2019-Feb-18 22:50N 39°02' E 009°09'0 0.0
2019-Feb-18 16:02N 39°02' E 009°09'0 0.0
2019-Feb-18 09:55N 39°02' E 009°09'48275199.3
2019-Feb-18 09:00N 23°30' W 083°12'4827843.6 160 / 281017.810.8 24.822.626.0
2019-Feb-18 03:16N 39°03' E 009°09'476017066.7
2019-Feb-18 03:00N 24°06' W 082°18'4760786.2 140 / 191018.910.8 25.019.1
2019-Feb-17 20:56N 39°03' E 009°09'0 0.0
2019-Feb-17 14:33N 39°03' E 009°08'4778860.0
2019-Feb-17 09:00N 24°42' W 083°06'47782627.2 130 / 181014.810.8 22.520.825.0
2019-Feb-17 07:10N 39°03' E 009°08'0 0.0
2019-Feb-17 00:53N 39°04' E 009°08'46392004.2
2019-Feb-16 22:34N 27°47' W 082°31'114.5
2019-Feb-16 22:30N 27°48' W 082°30'612.4
2019-Feb-16 22:00N 27°53' W 082°26'3 6.2
2019-Feb-16 21:30N 27°56' W 082°27'1 1.7
2019-Feb-16 20:59N 27°57' W 082°27'0 0.0
2019-Feb-16 20:29N 27°57' W 082°27'0 0.0
2019-Feb-16 19:59N 27°57' W 082°27'0 0.0
2019-Feb-16 19:29N 27°57' W 082°27'0 0.0
2019-Feb-16 18:59N 27°57' W 082°27'0 0.0
2019-Feb-16 18:29N 27°57' W 082°27'0 0.0
2019-Feb-16 17:59N 27°57' W 082°27'0 0.0
2019-Feb-16 17:29N 27°57' W 082°27'0 0.0
2019-Feb-16 16:59N 27°57' W 082°27'0 0.0
2019-Feb-16 16:29N 27°57' W 082°27'0 0.0
2019-Feb-16 15:59N 27°57' W 082°27'0 0.0
2019-Feb-16 15:29N 27°57' W 082°27'0 0.0
2019-Feb-16 14:59N 27°57' W 082°27'0 0.0
2019-Feb-16 14:29N 27°57' W 082°27'0 0.0
2019-Feb-16 13:59N 27°57' W 082°27'0 0.0
2019-Feb-16 13:29N 27°57' W 082°27'0 0.0
2019-Feb-16 12:59N 27°57' W 082°27'0 0.0
2019-Feb-16 12:29N 27°57' W 082°27'0 0.0
2019-Feb-16 11:56N 27°57' W 082°27'0 0.9
2019-Feb-16 11:30N 27°57' W 082°27'1 2.6
2019-Feb-16 11:00N 27°55' W 082°27'4 7.4
2019-Feb-16 10:30N 27°51' W 082°27'4633818.7
2019-Feb-16 04:50N 39°04' E 009°08'0 0.0
2019-Feb-15 22:45N 39°04' E 009°08'0 0.0
2019-Feb-15 15:48N 39°05' E 009°08'4993733.7
2019-Feb-15 09:00N 22°30' W 085°48'499313658.4 020 / 151018.910.8 24.022.926.0
2019-Feb-15 08:38N 39°05' E 009°08'0 0.0
2019-Feb-15 01:52N 39°05' E 009°07'51155614.5
2019-Feb-15 00:57N 20°41' W 086°53'716.0
2019-Feb-15 00:30N 20°35' W 086°57'611.4
2019-Feb-15 00:00N 20°29' W 086°59'0 0.1
2019-Feb-14 23:30N 20°29' W 086°59'0 0.1
2019-Feb-14 23:00N 20°29' W 086°59'0 0.0
2019-Feb-14 22:30N 20°29' W 086°59'0 0.0
2019-Feb-14 22:00N 20°29' W 086°59'0 0.0
2019-Feb-14 21:30N 20°29' W 086°59'0 0.0
2019-Feb-14 21:00N 20°29' W 086°59'0 0.0
2019-Feb-14 20:27N 20°29' W 086°59'0 0.0
2019-Feb-14 20:00N 20°29' W 086°59'0 0.0
2019-Feb-14 19:30N 20°29' W 086°59'0 0.0
2019-Feb-14 19:00N 20°29' W 086°59'0 0.0
2019-Feb-14 18:30N 20°29' W 086°59'0 0.0
2019-Feb-14 17:57N 20°29' W 086°59'0 0.0
2019-Feb-14 17:30N 20°29' W 086°59'0 0.0
2019-Feb-14 17:00N 20°29' W 086°59'0 0.1
2019-Feb-14 16:30N 20°29' W 086°59'0 0.0
2019-Feb-14 16:00N 20°29' W 086°59'0 0.0
2019-Feb-14 15:27N 20°29' W 086°59'0 0.0
2019-Feb-14 15:00N 20°29' W 086°59'0 0.0
2019-Feb-14 14:30N 20°29' W 086°59'0 0.1
2019-Feb-14 14:00N 20°29' W 086°59'1 1.1
2019-Feb-14 13:30N 20°29' W 086°59'4 8.0
2019-Feb-14 13:01N 20°27' W 087°02'5131690.2
2019-Feb-14 05:34N 39°06' E 009°07'0 0.0
2019-Feb-13 23:16N 39°06' E 009°07'0 0.0
2019-Feb-13 16:22N 39°06' E 009°07'0 0.0
2019-Feb-13 09:41N 39°06' E 009°07'5294931.1
2019-Feb-13 04:00N 16°54' W 087°36'52944518.1 130 / 101016.910.8 25.017.5
2019-Feb-13 02:49N 39°07' E 009°07'0 0.0
2019-Feb-12 19:30N 39°07' E 009°07'0 0.0
2019-Feb-12 12:34N 39°07' E 009°07'52902048.3
2019-Feb-12 10:00N 17°24' W 087°54'166 6.6 090 / 181015.810.8 25.723.326.0
2019-Feb-11 09:00N 20°00' W 086°54'   090 / 281018.910.8 25.624.126.0

Dump ship's entire track history